sensor_id;sensor_type;location;lat;lon;timestamp;P1;durP1;ratioP1;P2;durP2;ratioP2
8714;SDS011;4394;51.208;8.904;2024-01-15T00:00:20;4.70;;;3.83;;
8714;SDS011;4394;51.208;8.904;2024-01-15T00:03:09;6.73;;;4.20;;
8714;SDS011;4394;51.208;8.904;2024-01-15T00:05:57;5.53;;;4.17;;
8714;SDS011;4394;51.208;8.904;2024-01-15T00:08:46;5.90;;;4.17;;
8714;SDS011;4394;51.208;8.904;2024-01-15T00:11:35;8.43;;;4.30;;
8714;SDS011;4394;51.208;8.904;2024-01-15T00:14:23;5.80;;;4.17;;
8714;SDS011;4394;51.208;8.904;2024-01-15T00:17:11;7.97;;;3.93;;
8714;SDS011;4394;51.208;8.904;2024-01-15T00:19:59;5.83;;;4.30;;
8714;SDS011;4394;51.208;8.904;2024-01-15T00:22:47;7.03;;;4.10;;
8714;SDS011;4394;51.208;8.904;2024-01-15T00:25:36;7.47;;;4.23;;
8714;SDS011;4394;51.208;8.904;2024-01-15T00:28:24;8.43;;;4.37;;
8714;SDS011;4394;51.208;8.904;2024-01-15T00:31:12;5.50;;;3.93;;
8714;SDS011;4394;51.208;8.904;2024-01-15T00:34:03;7.63;;;4.30;;
8714;SDS011;4394;51.208;8.904;2024-01-15T00:36:52;7.00;;;4.83;;
8714;SDS011;4394;51.208;8.904;2024-01-15T00:39:40;5.60;;;4.37;;
8714;SDS011;4394;51.208;8.904;2024-01-15T00:42:30;6.50;;;4.30;;
8714;SDS011;4394;51.208;8.904;2024-01-15T00:45:18;6.97;;;4.40;;
8714;SDS011;4394;51.208;8.904;2024-01-15T00:48:07;7.20;;;4.50;;
8714;SDS011;4394;51.208;8.904;2024-01-15T00:50:55;6.37;;;4.30;;
8714;SDS011;4394;51.208;8.904;2024-01-15T00:53:43;5.53;;;4.40;;
8714;SDS011;4394;51.208;8.904;2024-01-15T00:56:31;6.30;;;4.40;;
8714;SDS011;4394;51.208;8.904;2024-01-15T00:59:21;6.03;;;4.20;;
8714;SDS011;4394;51.208;8.904;2024-01-15T01:02:09;6.90;;;4.43;;
8714;SDS011;4394;51.208;8.904;2024-01-15T01:04:57;6.37;;;4.20;;
8714;SDS011;4394;51.208;8.904;2024-01-15T01:07:46;7.13;;;4.53;;
8714;SDS011;4394;51.208;8.904;2024-01-15T01:10:34;5.97;;;4.13;;
8714;SDS011;4394;51.208;8.904;2024-01-15T01:13:22;5.87;;;3.93;;
8714;SDS011;4394;51.208;8.904;2024-01-15T01:16:12;7.53;;;4.40;;
8714;SDS011;4394;51.208;8.904;2024-01-15T01:19:00;6.70;;;4.00;;
8714;SDS011;4394;51.208;8.904;2024-01-15T01:21:48;6.73;;;3.97;;
8714;SDS011;4394;51.208;8.904;2024-01-15T01:24:37;6.97;;;4.13;;
8714;SDS011;4394;51.208;8.904;2024-01-15T01:27:26;5.57;;;3.60;;
8714;SDS011;4394;51.208;8.904;2024-01-15T01:30:14;6.50;;;3.87;;
8714;SDS011;4394;51.208;8.904;2024-01-15T01:33:04;5.23;;;3.70;;
8714;SDS011;4394;51.208;8.904;2024-01-15T01:35:52;6.53;;;3.73;;
8714;SDS011;4394;51.208;8.904;2024-01-15T01:38:40;4.73;;;4.00;;
8714;SDS011;4394;51.208;8.904;2024-01-15T01:41:28;6.07;;;4.03;;
8714;SDS011;4394;51.208;8.904;2024-01-15T01:44:16;5.50;;;3.60;;
8714;SDS011;4394;51.208;8.904;2024-01-15T01:47:04;5.03;;;3.70;;
8714;SDS011;4394;51.208;8.904;2024-01-15T01:49:54;4.43;;;3.20;;
8714;SDS011;4394;51.208;8.904;2024-01-15T01:52:43;5.73;;;3.67;;
8714;SDS011;4394;51.208;8.904;2024-01-15T01:55:31;4.80;;;3.33;;
8714;SDS011;4394;51.208;8.904;2024-01-15T01:58:21;4.57;;;3.20;;
8714;SDS011;4394;51.208;8.904;2024-01-15T02:01:09;5.33;;;3.27;;
8714;SDS011;4394;51.208;8.904;2024-01-15T02:03:58;3.33;;;2.97;;
8714;SDS011;4394;51.208;8.904;2024-01-15T02:06:49;4.00;;;2.73;;
8714;SDS011;4394;51.208;8.904;2024-01-15T02:09:38;4.20;;;3.30;;
8714;SDS011;4394;51.208;8.904;2024-01-15T02:12:26;4.10;;;3.03;;
8714;SDS011;4394;51.208;8.904;2024-01-15T02:15:14;4.43;;;3.33;;
8714;SDS011;4394;51.208;8.904;2024-01-15T02:18:03;4.77;;;2.83;;
8714;SDS011;4394;51.208;8.904;2024-01-15T02:20:54;4.30;;;3.00;;
8714;SDS011;4394;51.208;8.904;2024-01-15T02:23:43;5.00;;;3.27;;
8714;SDS011;4394;51.208;8.904;2024-01-15T02:26:31;4.80;;;2.90;;
8714;SDS011;4394;51.208;8.904;2024-01-15T02:29:22;5.43;;;3.00;;
8714;SDS011;4394;51.208;8.904;2024-01-15T02:32:10;5.73;;;3.20;;
8714;SDS011;4394;51.208;8.904;2024-01-15T02:34:58;4.70;;;2.87;;
8714;SDS011;4394;51.208;8.904;2024-01-15T02:37:46;4.10;;;3.10;;
8714;SDS011;4394;51.208;8.904;2024-01-15T02:40:36;6.07;;;3.30;;
8714;SDS011;4394;51.208;8.904;2024-01-15T02:43:25;6.17;;;3.40;;
8714;SDS011;4394;51.208;8.904;2024-01-15T02:46:14;5.70;;;3.73;;
8714;SDS011;4394;51.208;8.904;2024-01-15T02:49:02;5.53;;;3.33;;
8714;SDS011;4394;51.208;8.904;2024-01-15T02:51:50;8.47;;;3.60;;
8714;SDS011;4394;51.208;8.904;2024-01-15T02:54:39;6.03;;;4.03;;
8714;SDS011;4394;51.208;8.904;2024-01-15T02:57:28;5.90;;;3.87;;
8714;SDS011;4394;51.208;8.904;2024-01-15T03:00:16;4.93;;;3.23;;
8714;SDS011;4394;51.208;8.904;2024-01-15T03:03:04;4.83;;;3.70;;
8714;SDS011;4394;51.208;8.904;2024-01-15T03:05:53;5.33;;;3.80;;
8714;SDS011;4394;51.208;8.904;2024-01-15T03:08:41;6.43;;;3.70;;
8714;SDS011;4394;51.208;8.904;2024-01-15T03:11:29;5.10;;;3.43;;
8714;SDS011;4394;51.208;8.904;2024-01-15T03:14:25;6.00;;;3.40;;
8714;SDS011;4394;51.208;8.904;2024-01-15T03:17:13;5.33;;;3.27;;
8714;SDS011;4394;51.208;8.904;2024-01-15T03:20:01;5.93;;;3.40;;
8714;SDS011;4394;51.208;8.904;2024-01-15T03:22:50;5.90;;;3.40;;
8714;SDS011;4394;51.208;8.904;2024-01-15T03:25:38;7.87;;;3.80;;
8714;SDS011;4394;51.208;8.904;2024-01-15T03:28:26;7.23;;;3.33;;
8714;SDS011;4394;51.208;8.904;2024-01-15T03:31:18;9.73;;;3.60;;
8714;SDS011;4394;51.208;8.904;2024-01-15T03:34:06;9.27;;;4.07;;
8714;SDS011;4394;51.208;8.904;2024-01-15T03:36:54;5.87;;;3.10;;
8714;SDS011;4394;51.208;8.904;2024-01-15T03:39:42;5.90;;;3.40;;
8714;SDS011;4394;51.208;8.904;2024-01-15T03:42:30;6.10;;;3.70;;
8714;SDS011;4394;51.208;8.904;2024-01-15T03:45:18;6.23;;;3.40;;
8714;SDS011;4394;51.208;8.904;2024-01-15T03:48:07;6.60;;;3.30;;
8714;SDS011;4394;51.208;8.904;2024-01-15T03:50:56;6.33;;;4.00;;
8714;SDS011;4394;51.208;8.904;2024-01-15T03:53:44;7.63;;;3.40;;
8714;SDS011;4394;51.208;8.904;2024-01-15T03:56:32;6.20;;;3.40;;
8714;SDS011;4394;51.208;8.904;2024-01-15T03:59:20;7.23;;;3.43;;
8714;SDS011;4394;51.208;8.904;2024-01-15T04:02:08;7.03;;;3.53;;
8714;SDS011;4394;51.208;8.904;2024-01-15T04:04:57;7.47;;;3.07;;
8714;SDS011;4394;51.208;8.904;2024-01-15T04:07:45;7.93;;;3.17;;
8714;SDS011;4394;51.208;8.904;2024-01-15T04:10:33;7.00;;;3.13;;
8714;SDS011;4394;51.208;8.904;2024-01-15T04:13:21;5.00;;;2.93;;
8714;SDS011;4394;51.208;8.904;2024-01-15T04:16:09;9.13;;;3.83;;
8714;SDS011;4394;51.208;8.904;2024-01-15T04:18:57;6.83;;;2.93;;
8714;SDS011;4394;51.208;8.904;2024-01-15T04:21:47;9.43;;;3.40;;
8714;SDS011;4394;51.208;8.904;2024-01-15T04:24:35;6.73;;;2.87;;
8714;SDS011;4394;51.208;8.904;2024-01-15T04:27:23;6.37;;;2.83;;
8714;SDS011;4394;51.208;8.904;2024-01-15T04:30:12;7.40;;;2.80;;
8714;SDS011;4394;51.208;8.904;2024-01-15T04:33:00;6.27;;;2.93;;
8714;SDS011;4394;51.208;8.904;2024-01-15T04:35:49;8.77;;;2.87;;
8714;SDS011;4394;51.208;8.904;2024-01-15T04:38:38;6.60;;;3.20;;
8714;SDS011;4394;51.208;8.904;2024-01-15T04:41:26;9.40;;;2.87;;
8714;SDS011;4394;51.208;8.904;2024-01-15T04:44:15;6.97;;;2.80;;
8714;SDS011;4394;51.208;8.904;2024-01-15T04:47:03;8.50;;;2.50;;
8714;SDS011;4394;51.208;8.904;2024-01-15T04:49:51;7.17;;;2.90;;
8714;SDS011;4394;51.208;8.904;2024-01-15T04:52:39;8.13;;;3.17;;
8714;SDS011;4394;51.208;8.904;2024-01-15T04:55:28;8.83;;;3.00;;
8714;SDS011;4394;51.208;8.904;2024-01-15T04:58:16;8.60;;;2.97;;
8714;SDS011;4394;51.208;8.904;2024-01-15T05:01:04;6.97;;;3.50;;
8714;SDS011;4394;51.208;8.904;2024-01-15T05:03:53;8.40;;;3.17;;
8714;SDS011;4394;51.208;8.904;2024-01-15T05:06:45;8.73;;;3.40;;
8714;SDS011;4394;51.208;8.904;2024-01-15T05:09:33;8.07;;;3.20;;
8714;SDS011;4394;51.208;8.904;2024-01-15T05:12:22;7.90;;;3.80;;
8714;SDS011;4394;51.208;8.904;2024-01-15T05:15:11;6.43;;;3.00;;
8714;SDS011;4394;51.208;8.904;2024-01-15T05:17:59;6.27;;;2.93;;
8714;SDS011;4394;51.208;8.904;2024-01-15T05:20:47;5.80;;;3.20;;
8714;SDS011;4394;51.208;8.904;2024-01-15T05:23:35;7.70;;;3.40;;
8714;SDS011;4394;51.208;8.904;2024-01-15T05:26:23;7.07;;;3.53;;
8714;SDS011;4394;51.208;8.904;2024-01-15T05:29:12;7.77;;;3.47;;
8714;SDS011;4394;51.208;8.904;2024-01-15T05:32:00;8.47;;;3.27;;
8714;SDS011;4394;51.208;8.904;2024-01-15T05:34:48;7.27;;;3.00;;
8714;SDS011;4394;51.208;8.904;2024-01-15T05:37:36;6.27;;;3.47;;
8714;SDS011;4394;51.208;8.904;2024-01-15T05:40:25;5.13;;;3.20;;
8714;SDS011;4394;51.208;8.904;2024-01-15T05:43:13;6.03;;;3.30;;
8714;SDS011;4394;51.208;8.904;2024-01-15T05:46:03;7.17;;;3.07;;
8714;SDS011;4394;51.208;8.904;2024-01-15T05:48:51;6.10;;;3.13;;
8714;SDS011;4394;51.208;8.904;2024-01-15T05:51:40;8.17;;;3.23;;
8714;SDS011;4394;51.208;8.904;2024-01-15T05:54:28;5.13;;;2.97;;
8714;SDS011;4394;51.208;8.904;2024-01-15T05:57:16;7.73;;;3.33;;
8714;SDS011;4394;51.208;8.904;2024-01-15T06:00:05;5.73;;;3.17;;
8714;SDS011;4394;51.208;8.904;2024-01-15T06:02:56;5.90;;;3.40;;
8714;SDS011;4394;51.208;8.904;2024-01-15T06:05:44;5.50;;;2.90;;
8714;SDS011;4394;51.208;8.904;2024-01-15T06:08:32;5.97;;;3.13;;
8714;SDS011;4394;51.208;8.904;2024-01-15T06:11:21;6.33;;;3.10;;
8714;SDS011;4394;51.208;8.904;2024-01-15T06:14:09;6.43;;;3.23;;
8714;SDS011;4394;51.208;8.904;2024-01-15T06:16:57;7.13;;;3.77;;
8714;SDS011;4394;51.208;8.904;2024-01-15T06:19:46;9.73;;;4.17;;
8714;SDS011;4394;51.208;8.904;2024-01-15T06:22:35;8.00;;;3.43;;
8714;SDS011;4394;51.208;8.904;2024-01-15T06:25:26;5.40;;;3.13;;
8714;SDS011;4394;51.208;8.904;2024-01-15T06:28:14;7.50;;;3.77;;
8714;SDS011;4394;51.208;8.904;2024-01-15T06:31:02;6.57;;;3.77;;
8714;SDS011;4394;51.208;8.904;2024-01-15T06:33:52;7.00;;;4.17;;
8714;SDS011;4394;51.208;8.904;2024-01-15T06:36:42;6.07;;;3.50;;
8714;SDS011;4394;51.208;8.904;2024-01-15T06:39:30;5.93;;;3.43;;
8714;SDS011;4394;51.208;8.904;2024-01-15T06:42:18;8.53;;;4.00;;
8714;SDS011;4394;51.208;8.904;2024-01-15T06:45:08;6.17;;;3.67;;
8714;SDS011;4394;51.208;8.904;2024-01-15T06:47:57;8.17;;;3.40;;
8714;SDS011;4394;51.208;8.904;2024-01-15T06:50:45;6.70;;;3.73;;
8714;SDS011;4394;51.208;8.904;2024-01-15T06:53:34;6.53;;;3.10;;
8714;SDS011;4394;51.208;8.904;2024-01-15T06:56:22;7.00;;;3.67;;
8714;SDS011;4394;51.208;8.904;2024-01-15T06:59:10;8.87;;;3.53;;
8714;SDS011;4394;51.208;8.904;2024-01-15T07:02:02;12.07;;;4.30;;
8714;SDS011;4394;51.208;8.904;2024-01-15T07:04:50;6.70;;;3.53;;
8714;SDS011;4394;51.208;8.904;2024-01-15T07:07:38;8.07;;;3.77;;
8714;SDS011;4394;51.208;8.904;2024-01-15T07:10:27;8.93;;;3.97;;
8714;SDS011;4394;51.208;8.904;2024-01-15T07:13:18;7.03;;;3.60;;
8714;SDS011;4394;51.208;8.904;2024-01-15T07:16:06;9.40;;;3.80;;
8714;SDS011;4394;51.208;8.904;2024-01-15T07:18:54;10.17;;;4.00;;
8714;SDS011;4394;51.208;8.904;2024-01-15T07:21:42;12.20;;;3.90;;
8714;SDS011;4394;51.208;8.904;2024-01-15T07:24:30;9.30;;;4.27;;
8714;SDS011;4394;51.208;8.904;2024-01-15T07:27:22;10.97;;;3.97;;
8714;SDS011;4394;51.208;8.904;2024-01-15T07:30:10;6.77;;;3.70;;
8714;SDS011;4394;51.208;8.904;2024-01-15T07:32:59;7.33;;;3.90;;
8714;SDS011;4394;51.208;8.904;2024-01-15T07:35:47;9.33;;;3.90;;
8714;SDS011;4394;51.208;8.904;2024-01-15T07:38:35;7.20;;;3.90;;
8714;SDS011;4394;51.208;8.904;2024-01-15T07:41:24;9.47;;;3.70;;
8714;SDS011;4394;51.208;8.904;2024-01-15T07:44:13;4.67;;;3.13;;
8714;SDS011;4394;51.208;8.904;2024-01-15T07:47:01;5.17;;;3.47;;
8714;SDS011;4394;51.208;8.904;2024-01-15T07:49:50;6.40;;;3.47;;
8714;SDS011;4394;51.208;8.904;2024-01-15T07:52:38;7.90;;;3.03;;
8714;SDS011;4394;51.208;8.904;2024-01-15T07:55:28;5.30;;;3.23;;
8714;SDS011;4394;51.208;8.904;2024-01-15T07:58:16;4.53;;;2.87;;
8714;SDS011;4394;51.208;8.904;2024-01-15T08:01:05;5.73;;;3.20;;
8714;SDS011;4394;51.208;8.904;2024-01-15T08:03:54;6.60;;;3.73;;
8714;SDS011;4394;51.208;8.904;2024-01-15T08:06:42;6.43;;;3.43;;
8714;SDS011;4394;51.208;8.904;2024-01-15T08:09:31;6.50;;;3.40;;
8714;SDS011;4394;51.208;8.904;2024-01-15T08:12:19;6.47;;;3.23;;
8714;SDS011;4394;51.208;8.904;2024-01-15T08:15:08;5.90;;;3.10;;
8714;SDS011;4394;51.208;8.904;2024-01-15T08:17:57;6.57;;;3.33;;
8714;SDS011;4394;51.208;8.904;2024-01-15T08:20:46;5.03;;;3.00;;
8714;SDS011;4394;51.208;8.904;2024-01-15T08:23:34;7.13;;;3.63;;
8714;SDS011;4394;51.208;8.904;2024-01-15T08:26:22;4.40;;;3.57;;
8714;SDS011;4394;51.208;8.904;2024-01-15T08:29:10;5.83;;;3.37;;
8714;SDS011;4394;51.208;8.904;2024-01-15T08:31:58;7.60;;;3.30;;
8714;SDS011;4394;51.208;8.904;2024-01-15T08:34:48;6.60;;;3.10;;
8714;SDS011;4394;51.208;8.904;2024-01-15T08:37:38;6.40;;;3.40;;
8714;SDS011;4394;51.208;8.904;2024-01-15T08:40:26;5.63;;;3.00;;
8714;SDS011;4394;51.208;8.904;2024-01-15T08:43:14;6.17;;;3.00;;
8714;SDS011;4394;51.208;8.904;2024-01-15T08:46:03;7.13;;;2.73;;
8714;SDS011;4394;51.208;8.904;2024-01-15T08:48:51;4.40;;;2.57;;
8714;SDS011;4394;51.208;8.904;2024-01-15T08:51:40;4.77;;;2.47;;
8714;SDS011;4394;51.208;8.904;2024-01-15T08:54:29;4.47;;;2.43;;
8714;SDS011;4394;51.208;8.904;2024-01-15T08:57:17;5.63;;;2.43;;
8714;SDS011;4394;51.208;8.904;2024-01-15T09:00:05;5.10;;;2.10;;
8714;SDS011;4394;51.208;8.904;2024-01-15T09:02:55;4.87;;;2.40;;
8714;SDS011;4394;51.208;8.904;2024-01-15T09:05:43;3.60;;;2.40;;
8714;SDS011;4394;51.208;8.904;2024-01-15T09:08:33;3.00;;;2.17;;
8714;SDS011;4394;51.208;8.904;2024-01-15T09:11:21;5.47;;;2.13;;
8714;SDS011;4394;51.208;8.904;2024-01-15T09:14:09;4.00;;;2.30;;
8714;SDS011;4394;51.208;8.904;2024-01-15T09:16:59;3.43;;;2.20;;
8714;SDS011;4394;51.208;8.904;2024-01-15T09:19:47;3.77;;;2.20;;
8714;SDS011;4394;51.208;8.904;2024-01-15T09:22:36;4.00;;;2.30;;
8714;SDS011;4394;51.208;8.904;2024-01-15T09:25:28;5.07;;;2.10;;
8714;SDS011;4394;51.208;8.904;2024-01-15T09:28:16;2.87;;;2.07;;
8714;SDS011;4394;51.208;8.904;2024-01-15T09:31:04;4.27;;;2.10;;
8714;SDS011;4394;51.208;8.904;2024-01-15T09:33:52;4.47;;;2.07;;
8714;SDS011;4394;51.208;8.904;2024-01-15T09:36:42;3.73;;;2.00;;
8714;SDS011;4394;51.208;8.904;2024-01-15T09:39:30;3.07;;;2.10;;
8714;SDS011;4394;51.208;8.904;2024-01-15T09:42:20;2.77;;;1.80;;
8714;SDS011;4394;51.208;8.904;2024-01-15T09:45:09;3.83;;;1.70;;
8714;SDS011;4394;51.208;8.904;2024-01-15T09:47:58;3.97;;;2.07;;
8714;SDS011;4394;51.208;8.904;2024-01-15T09:50:47;3.03;;;1.97;;
8714;SDS011;4394;51.208;8.904;2024-01-15T09:53:35;2.70;;;1.90;;
8714;SDS011;4394;51.208;8.904;2024-01-15T09:56:25;4.20;;;1.90;;
8714;SDS011;4394;51.208;8.904;2024-01-15T09:59:16;3.03;;;1.90;;
8714;SDS011;4394;51.208;8.904;2024-01-15T10:02:05;3.93;;;1.80;;
8714;SDS011;4394;51.208;8.904;2024-01-15T10:04:55;3.90;;;2.13;;
8714;SDS011;4394;51.208;8.904;2024-01-15T10:07:43;4.67;;;1.87;;
8714;SDS011;4394;51.208;8.904;2024-01-15T10:10:33;3.50;;;1.80;;
8714;SDS011;4394;51.208;8.904;2024-01-15T10:13:24;2.60;;;1.77;;
8714;SDS011;4394;51.208;8.904;2024-01-15T10:16:13;1.90;;;1.53;;
8714;SDS011;4394;51.208;8.904;2024-01-15T10:19:01;2.03;;;1.70;;
8714;SDS011;4394;51.208;8.904;2024-01-15T10:21:50;2.23;;;1.73;;
8714;SDS011;4394;51.208;8.904;2024-01-15T10:24:39;2.23;;;1.93;;
8714;SDS011;4394;51.208;8.904;2024-01-15T10:27:28;3.60;;;2.13;;
8714;SDS011;4394;51.208;8.904;2024-01-15T10:30:16;2.60;;;2.37;;
8714;SDS011;4394;51.208;8.904;2024-01-15T10:33:06;2.53;;;2.07;;
8714;SDS011;4394;51.208;8.904;2024-01-15T10:35:54;3.30;;;2.17;;
8714;SDS011;4394;51.208;8.904;2024-01-15T10:38:43;3.60;;;2.30;;
8714;SDS011;4394;51.208;8.904;2024-01-15T10:41:32;2.63;;;1.97;;
8714;SDS011;4394;51.208;8.904;2024-01-15T10:44:20;3.20;;;2.30;;
8714;SDS011;4394;51.208;8.904;2024-01-15T10:47:08;2.70;;;1.93;;
8714;SDS011;4394;51.208;8.904;2024-01-15T10:49:57;2.60;;;2.03;;
8714;SDS011;4394;51.208;8.904;2024-01-15T10:52:46;3.80;;;2.33;;
8714;SDS011;4394;51.208;8.904;2024-01-15T10:55:35;3.27;;;2.17;;
8714;SDS011;4394;51.208;8.904;2024-01-15T10:58:26;2.20;;;2.00;;
8714;SDS011;4394;51.208;8.904;2024-01-15T11:01:20;2.20;;;2.00;;
8714;SDS011;4394;51.208;8.904;2024-01-15T11:04:13;4.03;;;2.23;;
8714;SDS011;4394;51.208;8.904;2024-01-15T11:07:04;3.23;;;2.37;;
8714;SDS011;4394;51.208;8.904;2024-01-15T11:09:54;3.37;;;2.40;;
8714;SDS011;4394;51.208;8.904;2024-01-15T11:12:42;3.20;;;2.30;;
8714;SDS011;4394;51.208;8.904;2024-01-15T11:15:31;2.63;;;2.40;;
8714;SDS011;4394;51.208;8.904;2024-01-15T11:18:19;2.63;;;2.33;;
8714;SDS011;4394;51.208;8.904;2024-01-15T11:21:22;3.83;;;2.37;;
8714;SDS011;4394;51.208;8.904;2024-01-15T11:24:12;2.17;;;1.97;;
8714;SDS011;4394;51.208;8.904;2024-01-15T11:27:38;2.73;;;2.00;;
8714;SDS011;4394;51.208;8.904;2024-01-15T11:30:28;4.80;;;2.00;;
8714;SDS011;4394;51.208;8.904;2024-01-15T11:39:45;2.27;;;2.00;;
8714;SDS011;4394;51.208;8.904;2024-01-15T11:42:34;2.93;;;1.80;;
8714;SDS011;4394;51.208;8.904;2024-01-15T11:45:22;2.53;;;1.90;;
8714;SDS011;4394;51.208;8.904;2024-01-15T11:48:11;1.87;;;1.70;;
8714;SDS011;4394;51.208;8.904;2024-01-15T11:51:02;1.83;;;1.40;;
8714;SDS011;4394;51.208;8.904;2024-01-15T11:53:51;1.87;;;1.67;;
8714;SDS011;4394;51.208;8.904;2024-01-15T11:56:46;2.00;;;1.60;;
8714;SDS011;4394;51.208;8.904;2024-01-15T11:59:35;1.93;;;1.63;;
8714;SDS011;4394;51.208;8.904;2024-01-15T12:02:23;1.83;;;1.50;;
8714;SDS011;4394;51.208;8.904;2024-01-15T12:05:11;1.83;;;1.60;;
8714;SDS011;4394;51.208;8.904;2024-01-15T12:08:01;2.00;;;1.80;;
8714;SDS011;4394;51.208;8.904;2024-01-15T12:10:49;2.60;;;1.50;;
8714;SDS011;4394;51.208;8.904;2024-01-15T12:13:39;1.53;;;1.43;;
8714;SDS011;4394;51.208;8.904;2024-01-15T12:16:27;1.50;;;1.33;;
8714;SDS011;4394;51.208;8.904;2024-01-15T12:19:15;1.60;;;1.33;;
8714;SDS011;4394;51.208;8.904;2024-01-15T12:22:04;1.57;;;1.40;;
8714;SDS011;4394;51.208;8.904;2024-01-15T12:24:52;1.33;;;1.10;;
8714;SDS011;4394;51.208;8.904;2024-01-15T12:27:40;0.87;;;0.80;;
8714;SDS011;4394;51.208;8.904;2024-01-15T12:30:30;1.90;;;1.00;;
8714;SDS011;4394;51.208;8.904;2024-01-15T12:33:20;4.13;;;0.97;;
8714;SDS011;4394;51.208;8.904;2024-01-15T12:36:08;1.43;;;0.90;;
8714;SDS011;4394;51.208;8.904;2024-01-15T12:38:58;2.30;;;0.90;;
8714;SDS011;4394;51.208;8.904;2024-01-15T12:41:46;1.17;;;0.67;;
8714;SDS011;4394;51.208;8.904;2024-01-15T12:44:35;0.97;;;0.60;;
8714;SDS011;4394;51.208;8.904;2024-01-15T12:47:25;0.93;;;0.60;;
8714;SDS011;4394;51.208;8.904;2024-01-15T12:50:14;2.40;;;0.73;;
8714;SDS011;4394;51.208;8.904;2024-01-15T12:53:06;3.40;;;0.67;;
8714;SDS011;4394;51.208;8.904;2024-01-15T12:55:54;1.47;;;0.83;;
8714;SDS011;4394;51.208;8.904;2024-01-15T12:58:42;3.80;;;0.93;;
8714;SDS011;4394;51.208;8.904;2024-01-15T13:01:30;2.40;;;0.70;;
8714;SDS011;4394;51.208;8.904;2024-01-15T13:04:23;1.60;;;0.73;;
8714;SDS011;4394;51.208;8.904;2024-01-15T13:07:12;6.43;;;1.07;;
8714;SDS011;4394;51.208;8.904;2024-01-15T13:10:00;2.80;;;0.80;;
8714;SDS011;4394;51.208;8.904;2024-01-15T13:12:48;1.77;;;0.60;;
8714;SDS011;4394;51.208;8.904;2024-01-15T13:15:37;2.03;;;0.83;;
8714;SDS011;4394;51.208;8.904;2024-01-15T13:18:25;1.90;;;0.90;;
8714;SDS011;4394;51.208;8.904;2024-01-15T13:21:15;3.37;;;0.83;;
8714;SDS011;4394;51.208;8.904;2024-01-15T13:24:03;3.40;;;1.27;;
8714;SDS011;4394;51.208;8.904;2024-01-15T13:26:51;6.83;;;1.23;;
8714;SDS011;4394;51.208;8.904;2024-01-15T13:29:40;1.07;;;0.97;;
8714;SDS011;4394;51.208;8.904;2024-01-15T13:32:28;3.90;;;1.00;;
8714;SDS011;4394;51.208;8.904;2024-01-15T13:35:16;4.33;;;1.07;;
8714;SDS011;4394;51.208;8.904;2024-01-15T13:38:06;1.43;;;0.87;;
8714;SDS011;4394;51.208;8.904;2024-01-15T13:40:55;6.07;;;1.30;;
8714;SDS011;4394;51.208;8.904;2024-01-15T13:43:43;1.80;;;1.13;;
8714;SDS011;4394;51.208;8.904;2024-01-15T13:46:31;2.43;;;1.10;;
8714;SDS011;4394;51.208;8.904;2024-01-15T13:49:20;3.57;;;1.70;;
8714;SDS011;4394;51.208;8.904;2024-01-15T13:52:08;2.00;;;1.20;;
8714;SDS011;4394;51.208;8.904;2024-01-15T13:54:57;1.67;;;1.20;;
8714;SDS011;4394;51.208;8.904;2024-01-15T13:57:46;2.30;;;1.50;;
8714;SDS011;4394;51.208;8.904;2024-01-15T14:00:34;1.67;;;1.40;;
8714;SDS011;4394;51.208;8.904;2024-01-15T14:03:23;2.83;;;1.53;;
8714;SDS011;4394;51.208;8.904;2024-01-15T14:06:12;2.67;;;1.60;;
8714;SDS011;4394;51.208;8.904;2024-01-15T14:09:00;3.00;;;1.70;;
8714;SDS011;4394;51.208;8.904;2024-01-15T14:11:52;4.27;;;2.00;;
8714;SDS011;4394;51.208;8.904;2024-01-15T14:14:40;4.50;;;1.70;;
8714;SDS011;4394;51.208;8.904;2024-01-15T14:17:29;4.67;;;2.03;;
8714;SDS011;4394;51.208;8.904;2024-01-15T14:20:17;1.70;;;1.57;;
8714;SDS011;4394;51.208;8.904;2024-01-15T14:23:08;2.23;;;1.77;;
8714;SDS011;4394;51.208;8.904;2024-01-15T14:25:56;2.53;;;1.70;;
8714;SDS011;4394;51.208;8.904;2024-01-15T14:28:45;4.90;;;2.10;;
8714;SDS011;4394;51.208;8.904;2024-01-15T14:31:37;3.17;;;2.00;;
8714;SDS011;4394;51.208;8.904;2024-01-15T14:34:25;2.10;;;1.60;;
8714;SDS011;4394;51.208;8.904;2024-01-15T14:37:14;4.27;;;2.10;;
8714;SDS011;4394;51.208;8.904;2024-01-15T14:40:02;2.80;;;1.80;;
8714;SDS011;4394;51.208;8.904;2024-01-15T14:42:50;5.17;;;1.87;;
8714;SDS011;4394;51.208;8.904;2024-01-15T14:45:40;2.97;;;1.50;;
8714;SDS011;4394;51.208;8.904;2024-01-15T14:48:32;3.37;;;2.03;;
8714;SDS011;4394;51.208;8.904;2024-01-15T14:51:20;3.27;;;2.03;;
8714;SDS011;4394;51.208;8.904;2024-01-15T14:54:08;2.73;;;1.90;;
8714;SDS011;4394;51.208;8.904;2024-01-15T14:56:56;4.47;;;2.00;;
8714;SDS011;4394;51.208;8.904;2024-01-15T14:59:45;4.07;;;1.83;;
8714;SDS011;4394;51.208;8.904;2024-01-15T15:02:34;1.70;;;1.60;;
8714;SDS011;4394;51.208;8.904;2024-01-15T15:05:24;3.47;;;1.50;;
8714;SDS011;4394;51.208;8.904;2024-01-15T15:08:13;2.13;;;1.53;;
8714;SDS011;4394;51.208;8.904;2024-01-15T15:11:02;2.87;;;1.60;;
8714;SDS011;4394;51.208;8.904;2024-01-15T15:13:51;3.80;;;2.00;;
8714;SDS011;4394;51.208;8.904;2024-01-15T15:16:39;2.67;;;1.70;;
8714;SDS011;4394;51.208;8.904;2024-01-15T15:19:28;2.60;;;2.00;;
8714;SDS011;4394;51.208;8.904;2024-01-15T15:22:17;2.33;;;1.77;;
8714;SDS011;4394;51.208;8.904;2024-01-15T15:25:05;2.30;;;2.07;;
8714;SDS011;4394;51.208;8.904;2024-01-15T15:27:55;3.53;;;2.33;;
8714;SDS011;4394;51.208;8.904;2024-01-15T15:30:44;3.30;;;2.20;;
8714;SDS011;4394;51.208;8.904;2024-01-15T15:33:32;3.70;;;2.03;;
8714;SDS011;4394;51.208;8.904;2024-01-15T15:36:22;1.83;;;1.73;;
8714;SDS011;4394;51.208;8.904;2024-01-15T15:39:10;2.30;;;1.77;;
8714;SDS011;4394;51.208;8.904;2024-01-15T15:42:02;4.10;;;1.90;;
8714;SDS011;4394;51.208;8.904;2024-01-15T15:44:50;4.20;;;1.90;;
8714;SDS011;4394;51.208;8.904;2024-01-15T15:47:42;2.57;;;1.70;;
8714;SDS011;4394;51.208;8.904;2024-01-15T15:50:31;3.77;;;1.80;;
8714;SDS011;4394;51.208;8.904;2024-01-15T15:53:22;2.30;;;1.80;;
8714;SDS011;4394;51.208;8.904;2024-01-15T15:56:11;4.10;;;1.90;;
8714;SDS011;4394;51.208;8.904;2024-01-15T15:58:59;1.77;;;1.67;;
8714;SDS011;4394;51.208;8.904;2024-01-15T16:01:48;2.33;;;1.30;;
8714;SDS011;4394;51.208;8.904;2024-01-15T16:04:36;1.90;;;1.23;;
8714;SDS011;4394;51.208;8.904;2024-01-15T16:07:25;1.90;;;1.33;;
8714;SDS011;4394;51.208;8.904;2024-01-15T16:10:16;2.17;;;1.60;;
8714;SDS011;4394;51.208;8.904;2024-01-15T16:13:05;4.33;;;2.00;;
8714;SDS011;4394;51.208;8.904;2024-01-15T16:15:53;3.00;;;1.50;;
8714;SDS011;4394;51.208;8.904;2024-01-15T16:19:01;3.33;;;1.73;;
8714;SDS011;4394;51.208;8.904;2024-01-15T16:22:10;2.90;;;1.83;;
8714;SDS011;4394;51.208;8.904;2024-01-15T16:25:19;4.47;;;2.00;;
8714;SDS011;4394;51.208;8.904;2024-01-15T16:28:08;2.23;;;2.00;;
8714;SDS011;4394;51.208;8.904;2024-01-15T16:30:57;2.80;;;2.27;;
8714;SDS011;4394;51.208;8.904;2024-01-15T16:33:53;4.27;;;2.57;;
8714;SDS011;4394;51.208;8.904;2024-01-15T16:36:50;3.10;;;2.80;;
8714;SDS011;4394;51.208;8.904;2024-01-15T16:39:38;4.93;;;2.47;;
8714;SDS011;4394;51.208;8.904;2024-01-15T16:42:27;3.20;;;2.13;;
8714;SDS011;4394;51.208;8.904;2024-01-15T16:45:16;2.77;;;2.40;;
8714;SDS011;4394;51.208;8.904;2024-01-15T16:48:04;2.80;;;1.90;;
8714;SDS011;4394;51.208;8.904;2024-01-15T16:50:53;2.23;;;2.03;;
8714;SDS011;4394;51.208;8.904;2024-01-15T16:53:41;2.83;;;1.90;;
8714;SDS011;4394;51.208;8.904;2024-01-15T16:56:30;2.77;;;2.23;;
8714;SDS011;4394;51.208;8.904;2024-01-15T16:59:19;2.27;;;1.63;;
8714;SDS011;4394;51.208;8.904;2024-01-15T17:02:07;2.57;;;1.73;;
8714;SDS011;4394;51.208;8.904;2024-01-15T17:04:55;6.50;;;2.10;;
8714;SDS011;4394;51.208;8.904;2024-01-15T17:07:44;5.70;;;2.33;;
8714;SDS011;4394;51.208;8.904;2024-01-15T17:10:32;6.23;;;2.00;;
8714;SDS011;4394;51.208;8.904;2024-01-15T17:13:20;4.47;;;2.00;;
8714;SDS011;4394;51.208;8.904;2024-01-15T17:16:10;3.97;;;2.17;;
8714;SDS011;4394;51.208;8.904;2024-01-15T17:18:58;4.70;;;2.23;;
8714;SDS011;4394;51.208;8.904;2024-01-15T17:21:46;4.20;;;2.43;;
8714;SDS011;4394;51.208;8.904;2024-01-15T17:24:34;3.70;;;1.80;;
8714;SDS011;4394;51.208;8.904;2024-01-15T17:27:22;5.07;;;2.60;;
8714;SDS011;4394;51.208;8.904;2024-01-15T17:30:11;4.17;;;2.23;;
8714;SDS011;4394;51.208;8.904;2024-01-15T17:33:01;6.23;;;2.77;;
8714;SDS011;4394;51.208;8.904;2024-01-15T17:35:52;6.07;;;2.30;;